SHT1903 EGKK-EGPH
Flight info
| Callsign | SHT1903 |
|---|---|
| Flight time | N/A |
| Altitude | 34000 |
| Route | LAM L10 BPK UN601 RIBEL DCT INPIP |
| Aircraft | A320/M-SDE3FGHIRWY/LB1 |
Departure
| Time | 2026-05-07 18:27 |
|---|---|
| Airport | London Gatwick Airport (EGKK) |
Arrival
| Time | N/A |
|---|---|
| Airport | Edinburgh Airport (EGPH) |
| Time | Latitude | Longitude | Altitude | Speed | Heading |
|---|---|---|---|---|---|
| 2026-05-07 18:03 | 51.15446 | -0.16430 | 205 ft | 0 kts | 77° |
| 2026-05-07 18:12 | 51.15442 | -0.16454 | 211 ft | 4 kts | 70° |
| 2026-05-07 18:12 | 51.15430 | -0.16491 | 210 ft | 4 kts | 42° |
| 2026-05-07 18:13 | 51.15410 | -0.16506 | 213 ft | 2 kts | 348° |
| 2026-05-07 18:13 | 51.15404 | -0.16505 | 213 ft | 0 kts | 348° |
| 2026-05-07 18:15 | 51.15405 | -0.16507 | 213 ft | 1 kts | 330° |
| 2026-05-07 18:16 | 51.15413 | -0.16554 | 214 ft | 8 kts | 270° |
| 2026-05-07 18:16 | 51.15400 | -0.16656 | 215 ft | 11 kts | 256° |
| 2026-05-07 18:16 | 51.15379 | -0.16793 | 208 ft | 15 kts | 256° |
| 2026-05-07 18:16 | 51.15355 | -0.16974 | 209 ft | 18 kts | 257° |
| 2026-05-07 18:17 | 51.15324 | -0.17190 | 208 ft | 22 kts | 257° |
| 2026-05-07 18:17 | 51.15299 | -0.17442 | 213 ft | 24 kts | 263° |
| 2026-05-07 18:17 | 51.15265 | -0.17720 | 209 ft | 26 kts | 257° |
| 2026-05-07 18:17 | 51.15224 | -0.18008 | 209 ft | 28 kts | 257° |
| 2026-05-07 18:18 | 51.15183 | -0.18321 | 210 ft | 29 kts | 258° |
| 2026-05-07 18:18 | 51.15141 | -0.18633 | 208 ft | 30 kts | 258° |
| 2026-05-07 18:18 | 51.15099 | -0.18960 | 208 ft | 28 kts | 258° |
| 2026-05-07 18:18 | 51.15055 | -0.19275 | 213 ft | 30 kts | 257° |
| 2026-05-07 18:19 | 51.15015 | -0.19577 | 211 ft | 23 kts | 259° |
| 2026-05-07 18:19 | 51.14984 | -0.19808 | 209 ft | 22 kts | 256° |
| 2026-05-07 18:19 | 51.14949 | -0.20056 | 207 ft | 21 kts | 258° |
| 2026-05-07 18:19 | 51.14917 | -0.20295 | 205 ft | 24 kts | 258° |
| 2026-05-07 18:20 | 51.14883 | -0.20539 | 208 ft | 23 kts | 257° |
| 2026-05-07 18:20 | 51.14847 | -0.20794 | 205 ft | 21 kts | 258° |
| 2026-05-07 18:20 | 51.14814 | -0.21040 | 211 ft | 24 kts | 258° |
| 2026-05-07 18:20 | 51.14773 | -0.21288 | 205 ft | 22 kts | 256° |
| 2026-05-07 18:21 | 51.14732 | -0.21404 | 212 ft | 1 kts | 186° |
| 2026-05-07 18:21 | 51.14729 | -0.21404 | 212 ft | 2 kts | 186° |
| 2026-05-07 18:22 | 51.14701 | -0.21401 | 207 ft | 6 kts | 171° |
| 2026-05-07 18:22 | 51.14674 | -0.21380 | 208 ft | 7 kts | 143° |
| 2026-05-07 18:22 | 51.14638 | -0.21340 | 208 ft | 6 kts | 161° |
| 2026-05-07 18:22 | 51.14620 | -0.21333 | 205 ft | 1 kts | 167° |
| 2026-05-07 18:23 | 51.14618 | -0.21332 | 205 ft | 0 kts | 167° |
| 2026-05-07 18:23 | 51.14615 | -0.21332 | 205 ft | 0 kts | 167° |
| 2026-05-07 18:24 | 51.14614 | -0.21331 | 205 ft | 0 kts | 167° |
| 2026-05-07 18:24 | 51.14590 | -0.21322 | 210 ft | 11 kts | 164° |
| 2026-05-07 18:25 | 51.14523 | -0.21183 | 209 ft | 19 kts | 87° |
| 2026-05-07 18:25 | 51.14530 | -0.21103 | 211 ft | 0 kts | 78° |
| 2026-05-07 18:26 | 51.14534 | -0.21069 | 207 ft | 20 kts | 78° |
| 2026-05-07 18:26 | 51.14621 | -0.20432 | 211 ft | 94 kts | 76° |
| 2026-05-07 18:26 | 51.14810 | -0.19120 | 212 ft | 146 kts | 77° |
| 2026-05-07 18:27 | 51.15061 | -0.17469 | 699 ft | 151 kts | 78° |
| 2026-05-07 18:27 | 51.15320 | -0.15819 | 1348 ft | 155 kts | 79° |
| 2026-05-07 18:27 | 51.15553 | -0.14079 | 1825 ft | 172 kts | 81° |
| 2026-05-07 18:27 | 51.15810 | -0.12085 | 2214 ft | 195 kts | 80° |
| 2026-05-07 18:28 | 51.16103 | -0.09845 | 2601 ft | 216 kts | 79° |
| 2026-05-07 18:28 | 51.16516 | -0.07459 | 3038 ft | 239 kts | 69° |
| 2026-05-07 18:28 | 51.17395 | -0.05039 | 3721 ft | 258 kts | 53° |
| 2026-05-07 18:28 | 51.18522 | -0.02745 | 4721 ft | 262 kts | 52° |
| 2026-05-07 18:29 | 51.19643 | -0.00434 | 5722 ft | 266 kts | 52° |
| 2026-05-07 18:29 | 51.20777 | 0.01920 | 6718 ft | 270 kts | 52° |
| 2026-05-07 18:29 | 51.21934 | 0.04329 | 7581 ft | 277 kts | 53° |
| 2026-05-07 18:29 | 51.23123 | 0.06806 | 8413 ft | 284 kts | 53° |
| 2026-05-07 18:30 | 51.24321 | 0.09372 | 9281 ft | 290 kts | 58° |
| 2026-05-07 18:30 | 51.25152 | 0.12287 | 10108 ft | 295 kts | 75° |
| 2026-05-07 18:30 | 51.25562 | 0.15526 | 10910 ft | 299 kts | 81° |
| 2026-05-07 18:30 | 51.25944 | 0.18800 | 11729 ft | 302 kts | 81° |
| 2026-05-07 18:31 | 51.26336 | 0.22116 | 12550 ft | 305 kts | 81° |
| 2026-05-07 18:31 | 51.26728 | 0.25449 | 13164 ft | 308 kts | 81° |
| 2026-05-07 18:31 | 51.27245 | 0.28820 | 13924 ft | 314 kts | 69° |
| 2026-05-07 18:31 | 51.28414 | 0.31800 | 14593 ft | 320 kts | 47° |